Pagina principale
METAR-TAF:

METAR-TAF

Aeroporti :

Čita, Russia

Aeroporto di Čita-Kadala

latitudine: 52-05N, longitudine: 113-29E, altezza: 685 m

Osservazione

Il bollettino è stato emesso 36 minuti fa, alle 01:00 UTC
Vento 4 kt da est
Temperature -24°C
Umidità 76%
Pressione 1019 hPa
Visibilità 10 km o più
Poco nuvoloso ad un'altezza di 700 ft

METAR: UIAA 250100Z 08002MPS 9999 FEW007 M24/M27 Q1019 R29/810165 NOSIG RMK QBB210 MT OBSC QFE705/0941

Ora: 10:36 (01:36 UTC)

Previsione

Il bollettino è stato emesso 2 ore e 36 minuti fa, alle 23:00 UTC
Previsione valida dal 25 alle 00 UTC al 25 alle 24 UTC
Vento 6 kt da nord
Visibilità 10 km o più

TAF: UIAA 242300Z 2500/2524 35003MPS 9999 NSC

Osservazioni e previsioni meteorologiche di più di 4000 aeroporti (messaggi METAR e TAF).

Le stazioni disponibili sono rappresentate dai dischi gialli e rossi sulla carta.

Puntare il mouse per vedere il nome della stazione.

Clicca sopra per visualizzare le osservazioni e previsioni meteorologiche.

Per cambiare la mappa : fare clic sui pulsanti verdi con una croce nera per ingrandire, il pulsante verde con un trattino per diminuire, o sulla freccia verde per le mappe adiacenti.


METAR-TAF: